Time;durP1;ratioP1;P1;durP2;ratioP2;P2;SDS_P1;SDS_P2;PMS_P1;PMS_P2;Temp;Humidity;BMP_temperature;BMP_pressure;BME280_temperature;BME280_humidity;BME280_pressure;Samples;Min_cycle;Max_cycle;Signal;HPM_P1;HPM_P2
2022/03/25 00:00:04;;;;;;;78.25;28.08;;;;;;;;;;5041711;28;20102;-63
2022/03/25 00:02:29;;;;;;;63.40;26.00;;;;;;;;;;5017145;28;20040;-62
2022/03/25 00:04:55;;;;;;;71.38;26.38;;;;;;;;;;5023407;28;20013;-62
2022/03/25 00:07:21;;;;;;;67.85;28.02;;;;;;;;;;5021509;28;20057;-62
2022/03/25 00:09:46;;;;;;;76.03;28.77;;;;;;;;;;5027262;28;20018;-62
2022/03/25 00:12:12;;;;;;;68.85;28.55;;;;;;;;;;5013250;28;20030;-61
2022/03/25 00:14:37;;;;;;;76.88;28.60;;;;;;;;;;5032289;28;20060;-62
2022/03/25 00:17:03;;;;;;;75.60;28.08;;;;;;;;;;5027550;28;20029;-62
2022/03/25 00:19:29;;;;;;;77.72;30.55;;;;;;;;;;5030442;28;20029;-61
2022/03/25 00:21:54;;;;;;;74.53;28.98;;;;;;;;;;5025447;28;20537;-62
2022/03/25 00:24:20;;;;;;;66.55;28.10;;;;;;;;;;5030382;28;20435;-62
2022/03/25 00:26:46;;;;;;;62.25;25.70;;;;;;;;;;5034078;28;20374;-62
2022/03/25 00:29:13;;;;;;;61.08;24.63;;;;;;;;;;5033526;28;20088;-62
2022/03/25 00:31:39;;;;;;;58.38;26.23;;;;;;;;;;5033092;28;20022;-63
2022/03/25 00:34:04;;;;;;;67.05;27.35;;;;;;;;;;5033400;28;20044;-61
2022/03/25 00:36:30;;;;;;;68.80;27.60;;;;;;;;;;5033351;28;20021;-62
2022/03/25 00:38:55;;;;;;;72.65;26.83;;;;;;;;;;5040649;28;20074;-61
2022/03/25 00:41:23;;;;;;;81.68;29.05;;;;;;;;;;5052240;28;20410;-61
2022/03/25 00:43:49;;;;;;;64.90;29.27;;;;;;;;;;5053205;28;20079;-61
2022/03/25 00:46:15;;;;;;;75.40;28.30;;;;;;;;;;5027526;28;20493;-61
2022/03/25 00:48:42;;;;;;;75.43;30.55;;;;;;;;;;5026244;28;20033;-61
2022/03/25 00:51:08;;;;;;;68.95;29.13;;;;;;;;;;5025631;28;20049;-61
2022/03/25 00:53:34;;;;;;;65.72;27.50;;;;;;;;;;5023752;28;20513;-61
2022/03/25 00:56:03;;;;;;;69.20;29.23;;;;;;;;;;5028051;28;20478;-62
2022/03/25 00:58:29;;;;;;;69.05;26.88;;;;;;;;;;5048841;28;20025;-61
2022/03/25 01:00:55;;;;;;;70.18;28.45;;;;;;;;;;5047670;28;20523;-61
2022/03/25 01:03:21;;;;;;;67.63;28.70;;;;;;;;;;5052487;28;20021;-61
2022/03/25 01:05:48;;;;;;;74.70;27.55;;;;;;;;;;5052163;28;20021;-61
2022/03/25 01:08:15;;;;;;;68.80;27.30;;;;;;;;;;5037605;28;20057;-61
2022/03/25 01:10:41;;;;;;;69.03;26.92;;;;;;;;;;5052360;28;20040;-62
2022/03/25 01:13:07;;;;;;;61.45;25.75;;;;;;;;;;5047901;28;20107;-62
2022/03/25 01:15:32;;;;;;;61.78;26.90;;;;;;;;;;5041345;28;20059;-62
2022/03/25 01:17:58;;;;;;;60.78;25.60;;;;;;;;;;5033584;28;20036;-61
2022/03/25 01:20:24;;;;;;;61.15;27.50;;;;;;;;;;5022780;28;20025;-62
2022/03/25 01:22:50;;;;;;;72.53;28.17;;;;;;;;;;5003170;28;20515;-63
2022/03/25 01:25:16;;;;;;;64.10;27.02;;;;;;;;;;5023724;28;20100;-62
2022/03/25 01:27:42;;;;;;;67.43;26.75;;;;;;;;;;5024794;28;20037;-63
2022/03/25 01:30:08;;;;;;;75.68;28.27;;;;;;;;;;5023566;28;20037;-64
2022/03/25 01:32:37;;;;;;;75.18;29.38;;;;;;;;;;5021913;28;20022;-63
2022/03/25 01:35:06;;;;;;;77.15;30.25;;;;;;;;;;5028982;28;20504;-63
2022/03/25 01:37:32;;;;;;;76.30;30.63;;;;;;;;;;5021324;28;20509;-62
2022/03/25 01:39:58;;;;;;;83.72;31.38;;;;;;;;;;5027101;28;20471;-63
2022/03/25 01:42:31;;;;;;;70.18;29.08;;;;;;;;;;5047457;28;20028;-63
2022/03/25 01:44:57;;;;;;;74.70;31.63;;;;;;;;;;5052258;28;20116;-63
2022/03/25 01:47:28;;;;;;;81.95;30.48;;;;;;;;;;5052334;28;20132;-63
2022/03/25 01:49:54;;;;;;;74.45;28.52;;;;;;;;;;5052064;28;20534;-62
2022/03/25 01:52:20;;;;;;;80.97;29.88;;;;;;;;;;5052304;28;20064;-63
2022/03/25 01:54:46;;;;;;;74.88;27.52;;;;;;;;;;5051850;28;20059;-63
2022/03/25 01:57:12;;;;;;;71.32;28.75;;;;;;;;;;5052098;28;20029;-63
2022/03/25 01:59:38;;;;;;;67.45;27.08;;;;;;;;;;5051963;28;20051;-63
2022/03/25 02:02:05;;;;;;;69.45;26.92;;;;;;;;;;5052008;28;20029;-62
2022/03/25 02:04:30;;;;;;;69.15;26.73;;;;;;;;;;5052137;28;20047;-62
2022/03/25 02:06:56;;;;;;;69.32;28.25;;;;;;;;;;5046228;28;20479;-63
2022/03/25 02:09:22;;;;;;;66.18;25.90;;;;;;;;;;5032490;28;20077;-63
2022/03/25 02:11:48;;;;;;;72.20;26.63;;;;;;;;;;5038395;28;20022;-63
2022/03/25 02:14:14;;;;;;;67.18;26.90;;;;;;;;;;5051949;28;20359;-62
2022/03/25 02:16:41;;;;;;;63.78;25.48;;;;;;;;;;5034440;28;20423;-63
2022/03/25 02:19:10;;;;;;;66.18;25.65;;;;;;;;;;5013321;28;20021;-63
2022/03/25 02:21:38;;;;;;;64.60;26.00;;;;;;;;;;5038721;28;20104;-63
2022/03/25 02:24:05;;;;;;;69.80;27.05;;;;;;;;;;5031539;28;20033;-63
2022/03/25 02:26:32;;;;;;;70.40;27.88;;;;;;;;;;5031853;28;20064;-63
2022/03/25 02:29:00;;;;;;;72.75;28.05;;;;;;;;;;5031464;28;20053;-63
2022/03/25 02:31:26;;;;;;;69.95;30.40;;;;;;;;;;5034135;28;20029;-64
2022/03/25 02:34:01;;;;;;;72.90;29.33;;;;;;;;;;5050137;28;20071;-62
2022/03/25 02:36:27;;;;;;;72.70;31.00;;;;;;;;;;5048072;28;20033;-63
2022/03/25 02:38:53;;;;;;;72.15;29.80;;;;;;;;;;5046610;28;20494;-63
2022/03/25 02:41:18;;;;;;;91.35;30.42;;;;;;;;;;5051173;28;20033;-63
2022/03/25 02:43:44;;;;;;;88.53;30.85;;;;;;;;;;5051323;28;20033;-63
2022/03/25 02:46:10;;;;;;;83.75;31.92;;;;;;;;;;5051299;28;20466;-62
2022/03/25 02:48:35;;;;;;;72.20;31.63;;;;;;;;;;5051348;28;20052;-62
2022/03/25 02:51:01;;;;;;;77.60;31.48;;;;;;;;;;5051163;28;20036;-64
2022/03/25 02:53:27;;;;;;;78.57;30.98;;;;;;;;;;5051121;28;20033;-62
2022/03/25 02:55:54;;;;;;;74.93;29.92;;;;;;;;;;5051354;28;20025;-62
2022/03/25 02:58:20;;;;;;;87.13;32.25;;;;;;;;;;5040975;28;20096;-63
2022/03/25 03:00:45;;;;;;;82.45;32.25;;;;;;;;;;5031538;28;20025;-62
2022/03/25 03:03:11;;;;;;;87.38;32.78;;;;;;;;;;5013470;28;20536;-62
2022/03/25 03:05:36;;;;;;;80.10;30.83;;;;;;;;;;5031242;28;20056;-64
2022/03/25 03:08:02;;;;;;;71.57;31.52;;;;;;;;;;5032743;28;20025;-62
2022/03/25 03:10:29;;;;;;;77.25;31.10;;;;;;;;;;5035547;28;20047;-63
2022/03/25 03:12:54;;;;;;;84.25;32.60;;;;;;;;;;5050409;28;20033;-63
2022/03/25 03:15:21;;;;;;;77.75;32.58;;;;;;;;;;5054975;28;20025;-62
2022/03/25 03:17:48;;;;;;;87.45;31.10;;;;;;;;;;5055442;28;20029;-62
2022/03/25 03:20:17;;;;;;;83.78;30.60;;;;;;;;;;5053785;28;20064;-62
2022/03/25 03:22:43;;;;;;;70.78;29.35;;;;;;;;;;5035102;28;20096;-62
2022/03/25 03:25:10;;;;;;;73.00;27.65;;;;;;;;;;5034468;28;20033;-62
2022/03/25 03:27:37;;;;;;;70.95;27.88;;;;;;;;;;5034537;28;20029;-63
2022/03/25 03:30:04;;;;;;;70.05;29.35;;;;;;;;;;5034260;28;20050;-62
2022/03/25 03:32:29;;;;;;;66.28;27.80;;;;;;;;;;5034512;28;20021;-63
2022/03/25 03:34:55;;;;;;;69.57;28.10;;;;;;;;;;5041774;28;20477;-63
2022/03/25 03:37:22;;;;;;;71.97;27.20;;;;;;;;;;5054596;28;20090;-63
2022/03/25 03:39:48;;;;;;;67.85;27.70;;;;;;;;;;5054962;28;20025;-63
2022/03/25 03:42:14;;;;;;;72.53;28.80;;;;;;;;;;5054731;28;20386;-63
2022/03/25 03:44:40;;;;;;;63.20;28.08;;;;;;;;;;5054671;28;20028;-61
2022/03/25 03:47:07;;;;;;;74.32;30.23;;;;;;;;;;5054521;28;20025;-62
2022/03/25 03:49:33;;;;;;;75.80;29.00;;;;;;;;;;5042507;28;20037;-61
2022/03/25 03:51:59;;;;;;;69.22;28.35;;;;;;;;;;5041670;28;20075;-63
2022/03/25 03:54:25;;;;;;;78.05;29.50;;;;;;;;;;5035069;28;20045;-62
2022/03/25 03:56:50;;;;;;;65.45;27.80;;;;;;;;;;5034649;28;20498;-61
2022/03/25 03:59:16;;;;;;;68.80;29.52;;;;;;;;;;5052302;28;20116;-62
2022/03/25 04:01:41;;;;;;;76.93;29.80;;;;;;;;;;5054514;28;20053;-62
2022/03/25 04:04:07;;;;;;;80.97;29.23;;;;;;;;;;5053967;28;20028;-62
2022/03/25 04:06:33;;;;;;;76.60;29.30;;;;;;;;;;5052012;28;20365;-63
2022/03/25 04:08:58;;;;;;;69.78;28.88;;;;;;;;;;5034408;28;20086;-63
2022/03/25 04:11:24;;;;;;;93.03;30.83;;;;;;;;;;5033926;28;20037;-62
2022/03/25 04:13:50;;;;;;;77.32;29.08;;;;;;;;;;5034394;28;20033;-63
2022/03/25 04:16:15;;;;;;;67.50;30.30;;;;;;;;;;5034110;28;20034;-62
2022/03/25 04:18:41;;;;;;;83.35;29.83;;;;;;;;;;5039011;28;20027;-62
2022/03/25 04:21:06;;;;;;;76.40;30.90;;;;;;;;;;5053714;28;20379;-63
2022/03/25 04:23:32;;;;;;;77.25;29.10;;;;;;;;;;5037812;28;20084;-62
2022/03/25 04:25:58;;;;;;;88.28;30.48;;;;;;;;;;5045956;28;20100;-63
2022/03/25 04:28:24;;;;;;;71.22;27.85;;;;;;;;;;5034153;28;21160;-64
2022/03/25 04:30:49;;;;;;;73.38;29.73;;;;;;;;;;5048392;28;20091;-63
2022/03/25 04:33:15;;;;;;;81.32;29.15;;;;;;;;;;5053422;28;20119;-62
2022/03/25 04:35:40;;;;;;;78.00;30.17;;;;;;;;;;5045734;28;20024;-62
2022/03/25 04:38:06;;;;;;;93.95;29.77;;;;;;;;;;5045354;28;20151;-63
2022/03/25 04:40:32;;;;;;;83.43;30.13;;;;;;;;;;5045623;28;20553;-63
2022/03/25 04:42:59;;;;;;;79.90;30.92;;;;;;;;;;5053386;28;20040;-62
2022/03/25 04:45:26;;;;;;;86.32;31.23;;;;;;;;;;5053373;28;20486;-63
2022/03/25 04:47:52;;;;;;;87.50;31.40;;;;;;;;;;5046866;28;20022;-63
2022/03/25 04:50:18;;;;;;;88.28;35.60;;;;;;;;;;5033519;28;20098;-63
2022/03/25 04:52:45;;;;;;;109.10;43.95;;;;;;;;;;5033596;28;20022;-61
2022/03/25 04:55:11;;;;;;;96.65;39.33;;;;;;;;;;5034299;28;20029;-62
2022/03/25 04:57:38;;;;;;;104.43;34.80;;;;;;;;;;5053446;28;20025;-62
2022/03/25 05:00:04;;;;;;;114.57;38.10;;;;;;;;;;5037235;28;20029;-63
2022/03/25 05:02:30;;;;;;;90.55;35.40;;;;;;;;;;5044798;28;20028;-62
2022/03/25 05:04:55;;;;;;;108.18;35.65;;;;;;;;;;5053308;28;20033;-63
2022/03/25 05:07:22;;;;;;;108.07;34.88;;;;;;;;;;5043783;28;20041;-63
2022/03/25 05:09:47;;;;;;;95.35;34.10;;;;;;;;;;5033335;28;20029;-62
2022/03/25 05:12:13;;;;;;;95.97;35.80;;;;;;;;;;5032970;28;20031;-63
2022/03/25 05:14:40;;;;;;;95.65;34.90;;;;;;;;;;5033127;28;20033;-63
2022/03/25 05:17:06;;;;;;;87.93;33.47;;;;;;;;;;5032782;28;20104;-62
2022/03/25 05:19:32;;;;;;;93.75;33.58;;;;;;;;;;5032941;28;20121;-62
2022/03/25 05:21:58;;;;;;;93.63;34.10;;;;;;;;;;5032872;28;20080;-62
2022/03/25 05:24:24;;;;;;;82.68;32.63;;;;;;;;;;5015054;28;20064;-63
2022/03/25 05:26:50;;;;;;;91.63;32.40;;;;;;;;;;5047430;28;20029;-62
2022/03/25 05:29:15;;;;;;;83.57;31.88;;;;;;;;;;5052093;28;20068;-64
2022/03/25 05:31:41;;;;;;;97.30;35.17;;;;;;;;;;5051802;28;20029;-63
2022/03/25 05:34:07;;;;;;;80.85;33.17;;;;;;;;;;5052399;28;20596;-62
2022/03/25 05:36:33;;;;;;;96.03;34.40;;;;;;;;;;5032695;28;20037;-63
2022/03/25 05:39:00;;;;;;;87.38;34.53;;;;;;;;;;5040164;28;20024;-61
2022/03/25 05:41:26;;;;;;;80.03;34.70;;;;;;;;;;5051931;28;20440;-61
2022/03/25 05:43:52;;;;;;;78.90;30.77;;;;;;;;;;5052226;28;20063;-62
2022/03/25 05:46:18;;;;;;;92.60;33.03;;;;;;;;;;5051913;28;20044;-63
2022/03/25 05:48:43;;;;;;;105.28;34.25;;;;;;;;;;5052307;28;20435;-63
2022/03/25 05:51:10;;;;;;;83.95;32.97;;;;;;;;;;5043802;28;20561;-62
2022/03/25 05:53:39;;;;;;;77.78;32.45;;;;;;;;;;5052420;28;20104;-61
2022/03/25 05:56:05;;;;;;;89.63;34.55;;;;;;;;;;5026225;28;20048;-62
2022/03/25 05:58:40;;;;;;;90.03;34.08;;;;;;;;;;5032234;28;20062;-62
2022/03/25 06:01:10;;;;;;;86.43;34.08;;;;;;;;;;5030724;28;20021;-63
2022/03/25 06:03:35;;;;;;;97.43;35.10;;;;;;;;;;5039742;28;20129;-63
2022/03/25 06:06:03;;;;;;;90.82;33.50;;;;;;;;;;5032205;28;20478;-62
2022/03/25 06:08:30;;;;;;;89.43;34.95;;;;;;;;;;5033130;28;20182;-62
2022/03/25 06:10:55;;;;;;;90.30;33.45;;;;;;;;;;5031964;28;20036;-63
2022/03/25 06:13:21;;;;;;;86.53;33.15;;;;;;;;;;5031523;28;20498;-61
2022/03/25 06:15:47;;;;;;;89.05;33.35;;;;;;;;;;5031835;28;20040;-62
2022/03/25 06:18:13;;;;;;;82.38;33.35;;;;;;;;;;5031622;28;20151;-63
2022/03/25 06:20:39;;;;;;;79.38;33.22;;;;;;;;;;5031930;28;20040;-63
2022/03/25 06:23:05;;;;;;;75.95;31.45;;;;;;;;;;5031622;28;20317;-62
2022/03/25 06:25:31;;;;;;;75.38;32.25;;;;;;;;;;5023748;28;20029;-64
2022/03/25 06:27:59;;;;;;;67.63;30.15;;;;;;;;;;5046839;28;20025;-64
2022/03/25 06:30:34;;;;;;;70.18;28.80;;;;;;;;;;5051132;28;20052;-63
2022/03/25 06:33:02;;;;;;;79.07;30.10;;;;;;;;;;5043350;28;20025;-63
2022/03/25 06:35:28;;;;;;;74.10;30.50;;;;;;;;;;5048027;28;20035;-63
2022/03/25 06:37:55;;;;;;;69.70;32.17;;;;;;;;;;5045067;28;20083;-62
2022/03/25 06:40:22;;;;;;;67.18;29.77;;;;;;;;;;5039693;28;20102;-62
2022/03/25 06:42:48;;;;;;;71.32;31.05;;;;;;;;;;5030782;28;20033;-63
2022/03/25 06:45:16;;;;;;;61.75;29.27;;;;;;;;;;5041013;28;20532;-62
2022/03/25 06:47:42;;;;;;;62.80;29.88;;;;;;;;;;5051381;28;20032;-64
2022/03/25 06:50:10;;;;;;;67.50;31.42;;;;;;;;;;5051315;28;20028;-64
2022/03/25 06:52:36;;;;;;;73.47;31.30;;;;;;;;;;5051316;28;20060;-64
2022/03/25 06:55:03;;;;;;;72.18;31.33;;;;;;;;;;5043352;28;20094;-64
2022/03/25 06:57:29;;;;;;;62.50;30.75;;;;;;;;;;5050954;28;20054;-63
2022/03/25 06:59:54;;;;;;;64.18;30.27;;;;;;;;;;5044645;28;20529;-64
2022/03/25 07:02:20;;;;;;;69.82;29.92;;;;;;;;;;5031124;28;20029;-64
2022/03/25 07:04:46;;;;;;;59.65;28.17;;;;;;;;;;5037005;28;20040;-64
2022/03/25 07:07:12;;;;;;;65.32;29.27;;;;;;;;;;5043153;28;20033;-64
2022/03/25 07:09:37;;;;;;;62.22;28.33;;;;;;;;;;5031000;28;20032;-64
2022/03/25 07:12:04;;;;;;;68.78;30.73;;;;;;;;;;5030886;28;20021;-64
2022/03/25 07:14:30;;;;;;;50.42;29.13;;;;;;;;;;5042811;28;20082;-64
2022/03/25 07:16:55;;;;;;;54.63;28.85;;;;;;;;;;5051293;28;20029;-64
2022/03/25 07:19:25;;;;;;;60.75;30.10;;;;;;;;;;5050918;28;20035;-63
2022/03/25 07:21:54;;;;;;;51.77;30.17;;;;;;;;;;5042698;28;20113;-64
2022/03/25 07:24:20;;;;;;;47.75;29.15;;;;;;;;;;5033379;28;20107;-65
2022/03/25 07:26:46;;;;;;;56.33;30.63;;;;;;;;;;5050796;28;20025;-65
2022/03/25 07:29:11;;;;;;;56.95;32.08;;;;;;;;;;5050259;28;20466;-63
2022/03/25 07:31:37;;;;;;;58.38;31.77;;;;;;;;;;5050969;28;20511;-64
2022/03/25 07:34:03;;;;;;;58.60;31.65;;;;;;;;;;5050851;28;20025;-63
2022/03/25 07:36:28;;;;;;;73.15;32.97;;;;;;;;;;5050853;28;20036;-64
2022/03/25 07:38:55;;;;;;;63.17;32.03;;;;;;;;;;5051043;28;20112;-64
2022/03/25 07:41:21;;;;;;;63.00;29.85;;;;;;;;;;5050425;28;20040;-65
2022/03/25 07:43:46;;;;;;;54.88;28.63;;;;;;;;;;5045299;28;20028;-65
2022/03/25 07:46:12;;;;;;;55.42;30.40;;;;;;;;;;5030755;28;20033;-65
2022/03/25 07:48:38;;;;;;;55.97;30.45;;;;;;;;;;5043668;28;20028;-64
2022/03/25 07:51:04;;;;;;;58.25;30.17;;;;;;;;;;5050992;28;20040;-64
2022/03/25 07:53:32;;;;;;;61.97;28.80;;;;;;;;;;5051053;28;20025;-64
2022/03/25 07:55:58;;;;;;;53.10;28.27;;;;;;;;;;5054272;28;20559;-63
2022/03/25 07:58:24;;;;;;;47.10;28.08;;;;;;;;;;5054193;28;20438;-64
2022/03/25 08:00:50;;;;;;;53.35;27.83;;;;;;;;;;5054422;28;20104;-63
2022/03/25 08:03:17;;;;;;;52.20;30.42;;;;;;;;;;5054053;28;20021;-64
2022/03/25 08:05:44;;;;;;;57.95;28.67;;;;;;;;;;5044129;28;20375;-63
2022/03/25 08:08:10;;;;;;;64.03;28.77;;;;;;;;;;5032592;28;20030;-64
2022/03/25 08:10:38;;;;;;;57.92;28.92;;;;;;;;;;5041318;28;20026;-65
2022/03/25 08:13:05;;;;;;;59.17;29.30;;;;;;;;;;5034204;28;20033;-64
2022/03/25 08:15:32;;;;;;;56.17;29.48;;;;;;;;;;5034377;28;20026;-65
2022/03/25 08:17:58;;;;;;;48.38;29.15;;;;;;;;;;5049318;28;20029;-64
2022/03/25 08:20:27;;;;;;;52.33;29.38;;;;;;;;;;5053708;28;20160;-64
2022/03/25 08:22:55;;;;;;;45.33;28.77;;;;;;;;;;5053969;28;20025;-64
2022/03/25 08:28:05;;;;;;;48.30;29.35;;;;;;;;;;5033942;28;20121;-63
2022/03/25 08:30:32;;;;;;;47.92;29.75;;;;;;;;;;5041045;28;20126;-63
2022/03/25 08:32:58;;;;;;;48.33;28.92;;;;;;;;;;5020893;28;20474;-65
2022/03/25 08:35:27;;;;;;;52.40;29.45;;;;;;;;;;5024683;28;20022;-63
2022/03/25 08:37:53;;;;;;;41.73;28.70;;;;;;;;;;5023156;28;20049;-65
2022/03/25 08:40:23;;;;;;;50.05;31.10;;;;;;;;;;5026441;28;20064;-63
2022/03/25 08:42:49;;;;;;;53.08;29.85;;;;;;;;;;5024455;28;20053;-65
2022/03/25 08:45:16;;;;;;;50.40;29.42;;;;;;;;;;5027694;28;20018;-64
2022/03/25 08:47:43;;;;;;;46.42;28.40;;;;;;;;;;5023446;28;20034;-63
2022/03/25 08:50:12;;;;;;;45.75;26.40;;;;;;;;;;5031759;28;20026;-63
2022/03/25 08:52:41;;;;;;;49.00;26.58;;;;;;;;;;5027713;28;20025;-63
2022/03/25 08:55:09;;;;;;;48.65;27.10;;;;;;;;;;5038742;28;20033;-64
2022/03/25 08:57:35;;;;;;;44.40;27.38;;;;;;;;;;5053642;28;20036;-64
2022/03/25 09:00:01;;;;;;;46.10;25.75;;;;;;;;;;5053547;28;20115;-63
2022/03/25 09:02:26;;;;;;;41.15;25.17;;;;;;;;;;5036287;28;20048;-64
2022/03/25 09:04:52;;;;;;;45.58;25.02;;;;;;;;;;5052957;28;20451;-64
2022/03/25 09:07:17;;;;;;;49.42;27.05;;;;;;;;;;5036251;28;20114;-62
2022/03/25 09:09:43;;;;;;;40.15;24.67;;;;;;;;;;5033370;28;20473;-62
2022/03/25 09:12:09;;;;;;;37.33;24.38;;;;;;;;;;5041793;28;20462;-62
2022/03/25 09:14:35;;;;;;;40.17;24.83;;;;;;;;;;5046531;28;20033;-64
2022/03/25 09:17:01;;;;;;;37.35;24.75;;;;;;;;;;5026188;28;20422;-63
2022/03/25 09:19:26;;;;;;;37.40;21.85;;;;;;;;;;5013565;28;20451;-64
2022/03/25 09:21:52;;;;;;;51.95;21.83;;;;;;;;;;5026351;28;20033;-62
2022/03/25 09:24:18;;;;;;;43.33;21.63;;;;;;;;;;5026989;28;20049;-62
2022/03/25 09:26:43;;;;;;;42.05;22.30;;;;;;;;;;5025550;28;20030;-64
2022/03/25 09:29:09;;;;;;;48.10;23.48;;;;;;;;;;5020438;28;20141;-64
2022/03/25 09:31:34;;;;;;;45.42;26.73;;;;;;;;;;5024633;28;20474;-64
2022/03/25 09:36:44;;;;;;;48.05;25.73;;;;;;;;;;5021757;28;20072;-63
2022/03/25 09:39:09;;;;;;;55.42;24.08;;;;;;;;;;5022951;28;20025;-64
2022/03/25 09:41:36;;;;;;;55.33;24.08;;;;;;;;;;5005066;28;20022;-64
2022/03/25 09:44:06;;;;;;;52.78;25.75;;;;;;;;;;5038360;28;20061;-64
2022/03/25 09:46:31;;;;;;;47.50;23.47;;;;;;;;;;5041026;28;20033;-63
2022/03/25 09:48:57;;;;;;;53.65;27.42;;;;;;;;;;5039538;28;20067;-64
2022/03/25 09:51:23;;;;;;;51.45;25.13;;;;;;;;;;5041661;28;20033;-64
2022/03/25 09:53:50;;;;;;;46.53;22.75;;;;;;;;;;5032883;28;20127;-62
2022/03/25 09:56:15;;;;;;;47.97;23.30;;;;;;;;;;5050779;28;20578;-62
2022/03/25 09:58:41;;;;;;;55.28;26.92;;;;;;;;;;5047863;28;20120;-62
2022/03/25 10:01:07;;;;;;;36.22;20.85;;;;;;;;;;5041061;28;20029;-63
2022/03/25 10:03:37;;;;;;;45.20;21.23;;;;;;;;;;5040698;28;20449;-62
2022/03/25 10:06:09;;;;;;;48.33;23.35;;;;;;;;;;5032319;28;20455;-62
2022/03/25 10:08:34;;;;;;;52.30;23.15;;;;;;;;;;5032235;28;20087;-62
2022/03/25 10:11:21;;;;;;;36.65;23.00;;;;;;;;;;5024585;28;20378;-61
2022/03/25 10:13:47;;;;;;;38.58;20.58;;;;;;;;;;5021944;28;20025;-61
2022/03/25 10:16:45;;;;;;;38.13;21.38;;;;;;;;;;5048104;28;20033;-63
2022/03/25 10:19:10;;;;;;;43.67;22.15;;;;;;;;;;5039319;28;20044;-61
2022/03/25 10:21:59;;;;;;;34.92;19.50;;;;;;;;;;5032037;28;20029;-62
2022/03/25 10:24:43;;;;;;;43.50;22.38;;;;;;;;;;5051273;28;20029;-61
2022/03/25 10:27:10;;;;;;;36.83;21.27;;;;;;;;;;5051157;28;20104;-62
2022/03/25 10:29:36;;;;;;;41.88;19.63;;;;;;;;;;5033143;28;20045;-61
2022/03/25 10:32:10;;;;;;;41.65;22.02;;;;;;;;;;5026101;28;20029;-61
2022/03/25 10:34:38;;;;;;;39.20;22.35;;;;;;;;;;5032029;28;20025;-61
2022/03/25 10:37:05;;;;;;;45.28;21.83;;;;;;;;;;5043370;28;20029;-64
2022/03/25 10:39:32;;;;;;;34.88;18.67;;;;;;;;;;5035896;28;20029;-61
2022/03/25 10:42:03;;;;;;;32.22;17.80;;;;;;;;;;5044615;28;20025;-64
2022/03/25 10:44:41;;;;;;;33.17;15.95;;;;;;;;;;5048142;28;20474;-61
2022/03/25 10:47:16;;;;;;;28.67;15.68;;;;;;;;;;5031762;28;20060;-62
2022/03/25 10:49:46;;;;;;;27.42;14.40;;;;;;;;;;5044435;28;20033;-62
2022/03/25 10:52:32;;;;;;;30.25;14.80;;;;;;;;;;5051447;28;20029;-62
2022/03/25 10:55:21;;;;;;;34.92;14.98;;;;;;;;;;5038501;28;20032;-61
2022/03/25 10:57:51;;;;;;;31.45;14.77;;;;;;;;;;5032449;28;20072;-60
2022/03/25 11:00:17;;;;;;;27.10;14.02;;;;;;;;;;5032577;28;20036;-61
2022/03/25 11:02:45;;;;;;;27.70;14.38;;;;;;;;;;5032572;28;20025;-61
2022/03/25 11:05:11;;;;;;;23.92;13.05;;;;;;;;;;5031781;28;20029;-62
2022/03/25 11:07:37;;;;;;;22.83;11.85;;;;;;;;;;5032274;28;20030;-62
2022/03/25 11:10:03;;;;;;;23.10;12.25;;;;;;;;;;5032037;28;20040;-61
2022/03/25 11:12:30;;;;;;;24.30;11.77;;;;;;;;;;5028096;28;20383;-61
2022/03/25 11:14:58;;;;;;;24.13;12.95;;;;;;;;;;5043645;28;20029;-61
2022/03/25 11:17:26;;;;;;;19.63;10.65;;;;;;;;;;5050882;28;20032;-61
2022/03/25 11:19:53;;;;;;;21.05;10.75;;;;;;;;;;5050988;28;20036;-62
2022/03/25 11:22:20;;;;;;;31.25;12.27;;;;;;;;;;5050804;28;20033;-63
2022/03/25 11:24:52;;;;;;;33.75;11.90;;;;;;;;;;5051158;28;20383;-64
2022/03/25 11:27:28;;;;;;;40.08;12.48;;;;;;;;;;5050335;28;20032;-61
2022/03/25 11:29:58;;;;;;;27.77;12.63;;;;;;;;;;5033752;28;20045;-61
2022/03/25 11:32:24;;;;;;;28.85;12.48;;;;;;;;;;5036289;28;20459;-61
2022/03/25 11:34:55;;;;;;;24.30;11.95;;;;;;;;;;5050197;28;20034;-61
2022/03/25 11:37:24;;;;;;;28.65;12.73;;;;;;;;;;5034813;28;20064;-62
2022/03/25 11:40:12;;;;;;;28.48;13.20;;;;;;;;;;5035116;28;20466;-64
2022/03/25 11:42:42;;;;;;;26.00;12.95;;;;;;;;;;5034614;28;20041;-61
2022/03/25 11:45:31;;;;;;;;;;;;;;;;;;5035527;28;20037;-62
2022/03/25 11:47:59;;;;;;;30.40;13.18;;;;;;;;;;5028489;28;19967;-64
2022/03/25 11:50:45;;;;;;;28.48;14.15;;;;;;;;;;5034093;28;20036;-61
2022/03/25 11:53:10;;;;;;;27.02;14.63;;;;;;;;;;5042009;28;20035;-60
2022/03/25 11:56:09;;;;;;;25.10;14.25;;;;;;;;;;5054473;28;20036;-61
2022/03/25 11:58:55;;;;;;;33.08;12.80;;;;;;;;;;5054127;28;20045;-62
2022/03/25 12:01:22;;;;;;;31.23;13.50;;;;;;;;;;5054291;28;20075;-64
2022/03/25 12:03:59;;;;;;;24.80;12.65;;;;;;;;;;5054329;28;20474;-63
2022/03/25 12:07:03;;;;;;;40.42;13.05;;;;;;;;;;5053048;28;20030;-64
2022/03/25 12:09:36;;;;;;;24.42;12.45;;;;;;;;;;5034180;28;20033;-63
2022/03/25 12:12:02;;;;;;;24.70;11.95;;;;;;;;;;5034209;28;20049;-61
2022/03/25 12:14:32;;;;;;;26.30;12.23;;;;;;;;;;5033081;28;20475;-60
2022/03/25 12:16:58;;;;;;;;;;;;;;;;;;5035004;28;20064;-61
2022/03/25 12:19:26;;;;;;;19.67;12.45;;;;;;;;;;5033280;28;19944;-64
2022/03/25 12:22:18;;;;;;;22.58;11.70;;;;;;;;;;5034010;28;20394;-62
2022/03/25 12:24:44;;;;;;;27.38;12.02;;;;;;;;;;5016158;28;20041;-64
2022/03/25 12:27:09;;;;;;;19.50;9.93;;;;;;;;;;5034392;28;20104;-64
2022/03/25 12:29:37;;;;;;;20.08;10.15;;;;;;;;;;5033749;28;20594;-64
2022/03/25 12:32:05;;;;;;;22.63;10.70;;;;;;;;;;5033717;28;20030;-63
2022/03/25 12:34:55;;;;;;;23.60;9.70;;;;;;;;;;5033039;28;20091;-62
2022/03/25 12:37:35;;;;;;;17.52;10.30;;;;;;;;;;5033302;28;20026;-63
2022/03/25 12:40:14;;;;;;;20.15;9.95;;;;;;;;;;5032816;28;20033;-64
2022/03/25 12:42:41;;;;;;;31.13;10.83;;;;;;;;;;5033811;28;20061;-62
2022/03/25 12:45:07;;;;;;;23.90;10.02;;;;;;;;;;5033857;28;20903;-62
2022/03/25 12:47:34;;;;;;;26.80;11.50;;;;;;;;;;5033263;28;20105;-61
2022/03/25 12:50:02;;;;;;;26.45;10.85;;;;;;;;;;5033599;28;20042;-65
2022/03/25 12:52:27;;;;;;;40.97;14.70;;;;;;;;;;5033344;28;20108;-63
2022/03/25 12:54:53;;;;;;;23.15;9.75;;;;;;;;;;5034098;28;20056;-62
2022/03/25 12:57:33;;;;;;;24.40;10.38;;;;;;;;;;5033398;28;20080;-64
2022/03/25 12:59:58;;;;;;;19.80;11.43;;;;;;;;;;5033332;28;20453;-61
2022/03/25 13:02:37;;;;;;;19.40;9.70;;;;;;;;;;5033061;28;20087;-61
2022/03/25 13:05:06;;;;;;;24.70;10.38;;;;;;;;;;5033644;28;20029;-62
2022/03/25 13:07:32;;;;;;;24.95;10.65;;;;;;;;;;5033183;28;20375;-62
2022/03/25 13:09:59;;;;;;;37.13;10.65;;;;;;;;;;5033186;28;20025;-63
2022/03/25 13:12:29;;;;;;;24.50;10.65;;;;;;;;;;5032799;28;20053;-62
2022/03/25 13:14:55;;;;;;;18.50;9.70;;;;;;;;;;5033285;28;20022;-63
2022/03/25 13:17:33;;;;;;;21.88;9.30;;;;;;;;;;5032990;28;20364;-62
2022/03/25 13:19:58;;;;;;;23.80;9.70;;;;;;;;;;5033052;28;20029;-63
2022/03/25 13:22:24;;;;;;;20.85;10.32;;;;;;;;;;5032788;28;20048;-64
2022/03/25 13:24:58;;;;;;;22.40;10.32;;;;;;;;;;5032969;28;20117;-64
2022/03/25 13:27:24;;;;;;;23.67;11.40;;;;;;;;;;5032819;28;20044;-64
2022/03/25 13:29:51;;;;;;;20.00;9.82;;;;;;;;;;5032462;28;20132;-64
2022/03/25 13:32:32;;;;;;;25.23;10.48;;;;;;;;;;5032973;28;20100;-61
2022/03/25 13:35:16;;;;;;;22.75;10.80;;;;;;;;;;5032668;28;20108;-62
2022/03/25 13:37:41;;;;;;;16.92;9.20;;;;;;;;;;5032941;28;20040;-64
2022/03/25 13:40:26;;;;;;;18.80;10.50;;;;;;;;;;5032819;28;20117;-64
2022/03/25 13:42:56;;;;;;;20.25;10.50;;;;;;;;;;5032947;28;20156;-64
2022/03/25 13:45:22;;;;;;;20.23;10.32;;;;;;;;;;5032328;28;20025;-61
2022/03/25 13:48:16;;;;;;;22.60;10.32;;;;;;;;;;5032562;28;20076;-63
2022/03/25 13:50:55;;;;;;;21.48;9.77;;;;;;;;;;5015271;28;20402;-64
2022/03/25 13:53:35;;;;;;;21.15;9.35;;;;;;;;;;5032210;28;20056;-65
2022/03/25 13:56:10;;;;;;;18.02;9.30;;;;;;;;;;5032401;28;20418;-64
2022/03/25 13:58:36;;;;;;;21.73;8.68;;;;;;;;;;5031676;28;20034;-63
2022/03/25 14:01:02;;;;;;;15.95;9.25;;;;;;;;;;5032284;28;20037;-63
2022/03/25 14:03:30;;;;;;;27.45;11.25;;;;;;;;;;5031978;28;20072;-62
2022/03/25 14:06:14;;;;;;;18.30;10.25;;;;;;;;;;5031969;28;20053;-63
2022/03/25 14:08:41;;;;;;;19.25;10.07;;;;;;;;;;5031970;28;20033;-64
2022/03/25 14:11:08;;;;;;;20.80;9.10;;;;;;;;;;5032073;28;20032;-64
2022/03/25 14:13:54;;;;;;;26.63;9.82;;;;;;;;;;5031581;28;20036;-64
2022/03/25 14:16:19;;;;;;;19.77;9.95;;;;;;;;;;5031723;28;20045;-60
2022/03/25 14:18:50;;;;;;;23.65;9.48;;;;;;;;;;5032562;28;20026;-63
2022/03/25 14:21:42;;;;;;;22.88;10.45;;;;;;;;;;5031759;28;20470;-61
2022/03/25 14:26:52;;;;;;;27.27;11.18;;;;;;;;;;5031855;28;20477;-60
2022/03/25 14:29:18;;;;;;;21.58;11.45;;;;;;;;;;5031641;28;20077;-61
2022/03/25 14:31:44;;;;;;;21.63;10.50;;;;;;;;;;5051763;28;20041;-61